createdAt,value
2023-02-19T00:01:46.921Z,15.50
2023-02-19T00:04:19.742Z,15.60
2023-02-19T00:06:47.156Z,15.60
2023-02-19T00:09:15.942Z,15.60
2023-02-19T00:11:43.208Z,15.60
2023-02-19T00:14:15.050Z,15.70
2023-02-19T00:16:41.974Z,15.60
2023-02-19T00:19:13.885Z,15.70
2023-02-19T00:21:40.797Z,15.70
2023-02-19T00:24:10.537Z,15.70
2023-02-19T00:26:40.122Z,15.70
2023-02-19T00:29:07.035Z,15.70
2023-02-19T00:31:35.965Z,15.70
2023-02-19T00:34:05.753Z,15.70
2023-02-19T00:36:36.483Z,15.70
2023-02-19T00:39:04.852Z,15.80
2023-02-19T00:41:32.009Z,15.70
2023-02-19T00:44:01.746Z,15.70
2023-02-19T00:46:34.617Z,15.70
2023-02-19T00:49:01.810Z,15.70
2023-02-19T00:51:31.529Z,15.70
2023-02-19T00:53:58.773Z,15.70
2023-02-19T00:56:25.760Z,15.70
2023-02-19T00:58:53.393Z,15.70
2023-02-19T01:01:21.095Z,15.70
2023-02-19T01:03:48.682Z,15.70
2023-02-19T01:06:18.673Z,15.70
2023-02-19T01:08:46.466Z,15.70
2023-02-19T01:11:14.018Z,15.70
2023-02-19T01:13:41.413Z,15.70
2023-02-19T01:16:16.721Z,15.70
2023-02-19T01:18:44.213Z,15.80
2023-02-19T01:21:20.331Z,15.80
2023-02-19T01:23:48.093Z,15.70
2023-02-19T01:26:25.341Z,15.80
2023-02-19T01:28:52.767Z,15.80
2023-02-19T01:31:22.626Z,15.80
2023-02-19T01:33:51.800Z,15.80
2023-02-19T01:36:19.066Z,15.80
2023-02-19T01:38:46.611Z,15.80
2023-02-19T01:41:19.547Z,15.80
2023-02-19T01:44:11.486Z,15.80
2023-02-19T01:49:23.368Z,15.70
2023-02-19T01:52:16.786Z,15.70
2023-02-19T01:54:45.681Z,15.70
2023-02-19T01:57:19.192Z,15.80
2023-02-19T01:59:50.100Z,15.80
2023-02-19T02:02:17.326Z,15.80
2023-02-19T02:04:44.299Z,15.70
2023-02-19T02:07:30.488Z,15.70
2023-02-19T02:10:16.647Z,15.80
2023-02-19T02:12:43.537Z,15.70
2023-02-19T02:15:10.713Z,15.70
2023-02-19T02:17:57.554Z,15.70
2023-02-19T02:20:33.518Z,15.70
2023-02-19T02:23:07.218Z,15.70
2023-02-19T02:25:58.463Z,15.70
2023-02-19T02:28:48.578Z,15.70
2023-02-19T02:31:19.534Z,15.70
2023-02-19T02:33:52.368Z,15.70
2023-02-19T02:36:27.407Z,15.70
2023-02-19T02:38:56.964Z,15.70
2023-02-19T02:41:24.252Z,15.70
2023-02-19T02:43:51.095Z,15.80
2023-02-19T02:46:35.825Z,15.70
2023-02-19T02:49:06.979Z,15.70
2023-02-19T02:51:38.611Z,15.70
2023-02-19T02:54:30.530Z,15.70
2023-02-19T02:56:59.416Z,15.70
2023-02-19T02:59:31.810Z,15.70
2023-02-19T03:02:14.454Z,15.70
2023-02-19T03:05:11.694Z,15.70
2023-02-19T03:07:52.719Z,15.70
2023-02-19T03:10:54.702Z,15.70
2023-02-19T03:13:52.785Z,15.60
2023-02-19T03:16:48.830Z,15.70
2023-02-19T03:19:19.655Z,15.70
2023-02-19T03:22:10.263Z,15.70
2023-02-19T03:25:02.388Z,15.60
2023-02-19T03:27:31.620Z,15.60
2023-02-19T03:30:02.073Z,15.60
2023-02-19T03:33:08.245Z,15.60
2023-02-19T03:35:46.587Z,15.70
2023-02-19T03:38:21.731Z,15.60
2023-02-19T03:40:54.507Z,15.60
2023-02-19T03:44:06.202Z,15.60
2023-02-19T03:46:41.948Z,15.60
2023-02-19T03:49:13.553Z,15.60
2023-02-19T03:51:49.072Z,15.60
2023-02-19T03:54:48.178Z,15.50
2023-02-19T03:57:44.554Z,15.50
2023-02-19T04:00:19.100Z,15.50
2023-02-19T04:02:57.953Z,15.50
2023-02-19T04:05:30.742Z,15.50
2023-02-19T04:08:04.134Z,15.40
2023-02-19T04:10:32.172Z,15.50
2023-02-19T04:13:16.746Z,15.50
2023-02-19T04:15:46.244Z,15.40
2023-02-19T04:18:20.465Z,15.50
2023-02-19T04:20:48.414Z,15.40
2023-02-19T04:23:18.718Z,15.40
2023-02-19T04:25:49.139Z,15.40
2023-02-19T04:28:18.383Z,15.40
2023-02-19T04:30:45.847Z,15.40
2023-02-19T04:33:13.196Z,15.40
2023-02-19T04:35:40.023Z,15.40
2023-02-19T04:38:06.883Z,15.40
2023-02-19T04:40:33.882Z,15.40
2023-02-19T04:43:00.795Z,15.40
2023-02-19T04:45:27.671Z,15.40
2023-02-19T04:47:54.588Z,15.40
2023-02-19T04:50:22.927Z,15.40
2023-02-19T04:52:49.897Z,15.40
2023-02-19T04:55:17.485Z,15.40
2023-02-19T04:57:44.328Z,15.40
2023-02-19T05:00:13.901Z,15.50
2023-02-19T05:02:40.791Z,15.40
2023-02-19T05:05:07.790Z,15.40
2023-02-19T05:07:34.624Z,15.40
2023-02-19T05:10:01.499Z,15.50
2023-02-19T05:12:30.840Z,15.40
2023-02-19T05:14:57.750Z,15.40
2023-02-19T05:17:24.637Z,15.40
2023-02-19T05:19:51.568Z,15.50
2023-02-19T05:22:18.460Z,15.40
2023-02-19T05:24:45.415Z,15.50
2023-02-19T05:27:12.290Z,15.50
2023-02-19T05:29:39.224Z,15.50
2023-02-19T05:32:06.226Z,15.50
2023-02-19T05:34:33.142Z,15.50
2023-02-19T05:37:00.035Z,15.50
2023-02-19T05:39:26.968Z,15.50
2023-02-19T05:41:53.840Z,15.50
2023-02-19T05:44:20.716Z,15.60
2023-02-19T05:46:47.641Z,15.60
2023-02-19T05:49:14.483Z,15.60
2023-02-19T05:51:41.365Z,15.60
2023-02-19T05:54:08.255Z,15.60
2023-02-19T05:56:37.979Z,15.60
2023-02-19T05:59:21.382Z,15.60
2023-02-19T06:01:49.689Z,15.60
2023-02-19T06:04:17.309Z,15.60
2023-02-19T06:06:44.238Z,15.60
2023-02-19T06:09:11.779Z,15.60
2023-02-19T06:11:39.481Z,15.60
2023-02-19T06:14:06.769Z,15.60
2023-02-19T06:16:34.506Z,15.60
2023-02-19T06:19:04.953Z,15.60
2023-02-19T06:21:31.862Z,15.60
2023-02-19T06:23:58.836Z,15.60
2023-02-19T06:26:26.144Z,15.60
2023-02-19T06:28:54.633Z,15.60
2023-02-19T06:31:23.205Z,15.60
2023-02-19T06:33:50.884Z,15.60
2023-02-19T06:36:20.433Z,15.60
2023-02-19T06:38:47.908Z,15.60
2023-02-19T06:41:14.962Z,15.60
2023-02-19T06:43:42.314Z,15.60
2023-02-19T06:46:11.103Z,15.60
2023-02-19T06:48:39.955Z,15.60
2023-02-19T06:51:06.849Z,15.60
2023-02-19T06:53:33.722Z,15.60
2023-02-19T06:56:01.653Z,15.60
2023-02-19T06:58:28.941Z,15.60
2023-02-19T07:00:55.856Z,15.60
2023-02-19T07:03:23.171Z,15.50
2023-02-19T07:05:50.292Z,15.50
2023-02-19T07:08:17.481Z,15.50
2023-02-19T07:10:45.601Z,15.40
2023-02-19T07:13:12.660Z,15.40
2023-02-19T07:15:39.658Z,15.40
2023-02-19T07:18:10.405Z,15.40
2023-02-19T07:20:37.812Z,15.40
2023-02-19T07:23:04.820Z,15.40
2023-02-19T07:25:31.804Z,15.30
2023-02-19T07:27:58.705Z,15.30
2023-02-19T07:30:25.673Z,15.40
2023-02-19T07:32:52.550Z,15.40
2023-02-19T07:35:19.414Z,15.40
2023-02-19T07:37:46.280Z,15.30
2023-02-19T07:40:13.127Z,15.40
2023-02-19T07:42:40.041Z,15.30
2023-02-19T07:45:07.217Z,15.40
2023-02-19T07:47:34.078Z,15.40
2023-02-19T07:50:01.050Z,15.40
2023-02-19T07:52:28.385Z,15.40
2023-02-19T07:54:55.338Z,15.40
2023-02-19T07:57:22.449Z,15.40
2023-02-19T07:59:49.255Z,15.40
2023-02-19T08:02:36.945Z,15.40
2023-02-19T08:05:05.241Z,15.40
2023-02-19T08:07:36.434Z,15.40
2023-02-19T08:10:23.020Z,15.40
2023-02-19T08:13:23.610Z,15.40
2023-02-19T08:15:53.078Z,15.40
2023-02-19T08:18:25.952Z,15.40
2023-02-19T08:20:54.312Z,15.40
2023-02-19T08:23:21.630Z,15.40
2023-02-19T08:25:49.805Z,15.40
2023-02-19T08:28:17.940Z,15.40
2023-02-19T08:30:46.696Z,15.40
2023-02-19T08:33:19.844Z,15.40
2023-02-19T08:35:47.320Z,15.40
2023-02-19T08:38:16.406Z,15.50
2023-02-19T08:40:44.320Z,15.50
2023-02-19T08:43:13.584Z,15.50
2023-02-19T08:45:42.642Z,15.50
2023-02-19T08:48:10.787Z,15.60
2023-02-19T08:50:38.027Z,15.60
2023-02-19T08:53:06.237Z,15.60
2023-02-19T08:55:33.774Z,15.60
2023-02-19T08:58:00.898Z,15.70
2023-02-19T09:00:27.920Z,15.70
2023-02-19T09:02:54.858Z,15.80
2023-02-19T09:05:21.724Z,15.80
2023-02-19T09:07:48.557Z,15.80
2023-02-19T09:10:15.487Z,15.90
2023-02-19T09:12:42.344Z,15.90
2023-02-19T09:15:09.487Z,16.00
2023-02-19T09:17:36.414Z,16.00
2023-02-19T09:20:04.166Z,16.00
2023-02-19T09:22:30.978Z,16.00
2023-02-19T09:24:57.818Z,16.10
2023-02-19T09:27:24.778Z,16.10
2023-02-19T09:29:51.624Z,16.10
2023-02-19T09:32:19.330Z,16.10
2023-02-19T09:34:46.447Z,16.20
2023-02-19T09:37:13.261Z,16.20
2023-02-19T09:39:40.130Z,16.20
2023-02-19T09:42:13.277Z,16.30
2023-02-19T09:44:43.688Z,16.30
2023-02-19T09:47:31.474Z,16.30
2023-02-19T09:50:06.621Z,16.40
2023-02-19T09:52:45.334Z,16.40
2023-02-19T09:55:15.456Z,16.40
2023-02-19T09:57:43.702Z,16.40
2023-02-19T10:00:24.963Z,16.50
2023-02-19T10:03:19.702Z,16.50
2023-02-19T10:05:46.653Z,16.50
2023-02-19T10:08:18.596Z,16.40
2023-02-19T10:10:45.797Z,16.40
2023-02-19T10:13:23.178Z,16.40
2023-02-19T10:15:56.474Z,16.40
2023-02-19T10:18:28.562Z,16.50
2023-02-19T10:20:56.993Z,16.50
2023-02-19T10:23:25.086Z,16.50
2023-02-19T10:25:59.391Z,16.60
2023-02-19T10:28:29.877Z,16.50
2023-02-19T10:30:59.594Z,16.60
2023-02-19T10:33:27.433Z,16.60
2023-02-19T10:36:06.736Z,16.60
2023-02-19T10:38:45.128Z,16.70
2023-02-19T10:41:23.516Z,16.70
2023-02-19T10:44:15.591Z,16.70
2023-02-19T10:46:51.125Z,16.70
2023-02-19T10:49:35.764Z,16.70
2023-02-19T10:52:20.141Z,16.70
2023-02-19T10:54:53.924Z,16.70
2023-02-19T10:57:30.531Z,16.70
2023-02-19T11:00:01.301Z,16.70
2023-02-19T11:02:30.197Z,16.80
2023-02-19T11:05:03.296Z,16.80
2023-02-19T11:07:30.882Z,16.80
2023-02-19T11:09:59.204Z,16.70
2023-02-19T11:12:34.480Z,16.70
2023-02-19T11:15:22.365Z,16.80
2023-02-19T11:17:58.938Z,16.80
2023-02-19T11:20:28.508Z,16.80
2023-02-19T11:23:01.801Z,16.80
2023-02-19T11:25:29.304Z,16.80
2023-02-19T11:28:25.154Z,16.80
2023-02-19T11:30:52.508Z,16.80
2023-02-19T11:33:22.104Z,16.80
2023-02-19T11:36:10.363Z,16.80
2023-02-19T11:38:37.198Z,16.80
2023-02-19T11:41:15.847Z,16.90
2023-02-19T11:44:16.206Z,16.80
2023-02-19T11:46:54.013Z,16.90
2023-02-19T11:50:05.230Z,16.90
2023-02-19T11:52:38.975Z,16.90
2023-02-19T11:55:50.014Z,16.90
2023-02-19T11:58:37.942Z,16.90
2023-02-19T12:01:29.599Z,17.00
2023-02-19T12:04:19.345Z,17.10
2023-02-19T12:07:08.044Z,17.10
2023-02-19T12:09:47.590Z,17.20
2023-02-19T12:12:21.368Z,17.20
2023-02-19T12:15:03.069Z,17.20
2023-02-19T12:17:32.694Z,17.30
2023-02-19T12:20:15.245Z,17.30
2023-02-19T12:23:27.308Z,17.40
2023-02-19T12:26:15.934Z,17.50
2023-02-19T12:29:17.121Z,17.60
2023-02-19T12:31:56.284Z,17.70
2023-02-19T12:34:25.892Z,17.70
2023-02-19T12:37:14.723Z,17.80
2023-02-19T12:39:47.168Z,17.80
2023-02-19T12:42:41.526Z,17.80
2023-02-19T12:45:35.588Z,17.70
2023-02-19T12:48:29.689Z,17.80
2023-02-19T12:51:07.073Z,17.80
2023-02-19T12:54:02.867Z,17.80
2023-02-19T12:56:55.651Z,17.80
2023-02-19T12:59:37.829Z,17.80
2023-02-19T13:02:26.596Z,17.90
2023-02-19T13:05:20.398Z,17.90
2023-02-19T13:07:50.110Z,18.00
2023-02-19T13:10:26.307Z,18.10
2023-02-19T13:12:55.348Z,18.10
2023-02-19T13:15:29.220Z,18.20
2023-02-19T13:17:57.100Z,18.20
2023-02-19T13:20:30.257Z,18.20
2023-02-19T13:23:46.210Z,18.20
2023-02-19T13:26:46.837Z,18.20
2023-02-19T13:29:13.634Z,18.20
2023-02-19T13:32:14.316Z,18.30
2023-02-19T13:35:17.458Z,18.30
2023-02-19T13:37:44.957Z,18.30
2023-02-19T13:40:37.558Z,18.30
2023-02-19T13:43:07.708Z,18.20
2023-02-19T13:45:45.847Z,18.20
2023-02-19T13:48:25.310Z,18.20
2023-02-19T13:51:21.736Z,18.10
2023-02-19T13:53:50.127Z,18.10
2023-02-19T13:56:33.998Z,18.00
2023-02-19T13:59:15.703Z,18.00
2023-02-19T14:01:51.851Z,17.90
2023-02-19T14:04:21.558Z,17.90
2023-02-19T14:07:03.830Z,17.90
2023-02-19T14:09:40.109Z,17.80
2023-02-19T14:12:15.485Z,17.80
2023-02-19T14:14:53.623Z,17.80
2023-02-19T14:17:37.060Z,17.80
2023-02-19T14:20:23.869Z,17.80
2023-02-19T14:23:01.667Z,17.80
2023-02-19T14:25:29.388Z,17.80
2023-02-19T14:27:56.203Z,17.80
2023-02-19T14:30:23.978Z,17.80
2023-02-19T14:33:02.859Z,17.80
2023-02-19T14:35:48.909Z,17.80
2023-02-19T14:38:22.456Z,17.80
2023-02-19T14:40:50.700Z,17.70
2023-02-19T14:43:21.032Z,17.80
2023-02-19T14:45:55.063Z,17.80
2023-02-19T14:48:36.724Z,17.70
2023-02-19T14:51:35.071Z,17.80
2023-02-19T14:54:16.486Z,17.70
2023-02-19T14:56:48.331Z,17.70
2023-02-19T14:59:25.104Z,17.80
2023-02-19T15:02:21.277Z,17.70
2023-02-19T15:04:48.469Z,17.70
2023-02-19T15:07:20.757Z,17.70
2023-02-19T15:09:52.617Z,17.70
2023-02-19T15:12:25.125Z,17.70
2023-02-19T15:14:55.531Z,17.70
2023-02-19T15:17:31.385Z,17.70
2023-02-19T15:20:03.276Z,17.70
2023-02-19T15:22:34.008Z,17.60
2023-02-19T15:25:02.917Z,17.70
2023-02-19T15:27:30.191Z,17.60
2023-02-19T15:29:57.093Z,17.70
2023-02-19T15:32:28.993Z,17.70
2023-02-19T15:35:04.063Z,17.70
2023-02-19T15:37:36.231Z,17.70
2023-02-19T15:40:07.780Z,17.70
2023-02-19T15:42:37.244Z,17.70
2023-02-19T15:45:27.739Z,17.70
2023-02-19T15:48:07.619Z,17.70
2023-02-19T15:50:39.604Z,17.70
2023-02-19T15:53:19.317Z,17.70
2023-02-19T15:55:53.940Z,17.70
2023-02-19T15:58:28.141Z,17.60
2023-02-19T16:00:59.144Z,17.60
2023-02-19T16:03:28.142Z,17.60
2023-02-19T16:05:59.669Z,17.60
2023-02-19T16:08:32.750Z,17.60
2023-02-19T16:11:02.415Z,17.50
2023-02-19T16:13:32.115Z,17.50
2023-02-19T16:16:22.049Z,17.50
2023-02-19T16:18:53.436Z,17.40
2023-02-19T16:21:26.915Z,17.40
2023-02-19T16:24:01.569Z,17.40
2023-02-19T16:26:28.687Z,17.40
2023-02-19T16:28:55.804Z,17.40
2023-02-19T16:31:23.980Z,17.40
2023-02-19T16:33:51.527Z,17.40
2023-02-19T16:36:41.497Z,17.30
2023-02-19T16:39:08.392Z,17.30
2023-02-19T16:41:54.621Z,17.40
2023-02-19T16:44:21.471Z,17.30
2023-02-19T16:46:49.909Z,17.40
2023-02-19T16:49:16.904Z,17.30
2023-02-19T16:51:45.680Z,17.30
2023-02-19T16:54:12.976Z,17.30
2023-02-19T16:56:40.066Z,17.30
2023-02-19T16:59:08.026Z,17.30
2023-02-19T17:01:36.183Z,17.30
2023-02-19T17:04:11.984Z,17.40
2023-02-19T17:06:39.497Z,17.30
2023-02-19T17:09:08.685Z,17.30
2023-02-19T17:11:36.228Z,17.30
2023-02-19T17:14:03.339Z,17.40
2023-02-19T17:16:32.170Z,17.40
2023-02-19T17:18:59.021Z,17.30
2023-02-19T17:21:30.542Z,17.30
2023-02-19T17:23:57.456Z,17.20
2023-02-19T17:26:30.060Z,17.20
2023-02-19T17:28:58.381Z,17.20
2023-02-19T17:31:25.603Z,17.20
2023-02-19T17:33:52.562Z,17.10
2023-02-19T17:36:42.925Z,17.20
2023-02-19T17:39:15.295Z,17.10
2023-02-19T17:41:42.302Z,17.10
2023-02-19T17:44:09.529Z,17.10
2023-02-19T17:46:36.753Z,17.10
2023-02-19T17:49:03.950Z,17.10
2023-02-19T17:51:30.825Z,17.10
2023-02-19T17:53:57.775Z,17.10
2023-02-19T17:56:26.310Z,17.10
2023-02-19T17:58:54.582Z,17.10
2023-02-19T18:01:21.916Z,17.10
2023-02-19T18:03:49.892Z,17.10
2023-02-19T18:06:17.070Z,17.10
2023-02-19T18:08:51.528Z,17.10
2023-02-19T18:11:19.768Z,17.10
2023-02-19T18:13:48.110Z,17.10
2023-02-19T18:16:18.241Z,17.10
2023-02-19T18:18:45.586Z,17.10
2023-02-19T18:21:13.556Z,17.10
2023-02-19T18:23:40.775Z,17.10
2023-02-19T18:26:10.414Z,17.10
2023-02-19T18:28:38.352Z,17.10
2023-02-19T18:31:05.841Z,17.10
2023-02-19T18:33:33.842Z,17.10
2023-02-19T18:36:00.671Z,17.10
2023-02-19T18:38:27.816Z,17.10
2023-02-19T18:40:54.667Z,17.10
2023-02-19T18:43:21.570Z,17.00
2023-02-19T18:45:48.570Z,17.10
2023-02-19T18:48:15.548Z,17.10
2023-02-19T18:50:42.466Z,17.10
2023-02-19T18:53:09.506Z,17.10
2023-02-19T18:55:36.331Z,17.00
2023-02-19T18:58:03.212Z,17.00
2023-02-19T19:00:30.213Z,17.00
2023-02-19T19:02:58.723Z,17.00
2023-02-19T19:05:26.358Z,16.90
2023-02-19T19:07:55.451Z,16.90
2023-02-19T19:10:23.541Z,16.90
2023-02-19T19:12:50.913Z,16.80
2023-02-19T19:15:18.727Z,16.80
2023-02-19T19:17:46.653Z,16.80
2023-02-19T19:20:14.662Z,16.80
2023-02-19T19:22:42.253Z,16.80
2023-02-19T19:25:09.315Z,16.80
2023-02-19T19:27:36.158Z,16.80
2023-02-19T19:30:04.973Z,16.80
2023-02-19T19:32:31.869Z,16.80
2023-02-19T19:34:58.741Z,16.80
2023-02-19T19:37:28.354Z,16.70
2023-02-19T19:39:56.392Z,16.80
2023-02-19T19:42:23.819Z,16.80
2023-02-19T19:44:50.789Z,16.80
2023-02-19T19:47:17.878Z,16.80
2023-02-19T19:49:47.260Z,16.80
2023-02-19T19:52:14.473Z,16.70
2023-02-19T19:54:43.183Z,16.70
2023-02-19T19:57:10.921Z,16.70
2023-02-19T19:59:39.541Z,16.70
2023-02-19T20:02:07.700Z,16.70
2023-02-19T20:04:34.658Z,16.70
2023-02-19T20:07:01.872Z,16.70
2023-02-19T20:09:29.208Z,16.70
2023-02-19T20:11:56.583Z,16.70
2023-02-19T20:14:24.801Z,16.70
2023-02-19T20:16:52.488Z,16.70
2023-02-19T20:19:20.344Z,16.70
2023-02-19T20:21:49.170Z,16.70
2023-02-19T20:24:17.480Z,16.70
2023-02-19T20:26:44.711Z,16.70
2023-02-19T20:29:13.713Z,16.70
2023-02-19T20:31:40.736Z,16.70
2023-02-19T20:34:07.736Z,16.70
2023-02-19T20:36:41.617Z,16.70
2023-02-19T20:39:08.385Z,16.70
2023-02-19T20:41:35.232Z,16.70
2023-02-19T20:44:02.232Z,16.80
2023-02-19T20:46:29.936Z,16.80
2023-02-19T20:48:57.172Z,16.80
2023-02-19T20:51:24.080Z,16.80
2023-02-19T20:53:50.913Z,16.80
2023-02-19T20:56:17.792Z,16.80
2023-02-19T20:58:44.718Z,16.80
2023-02-19T21:01:12.190Z,16.80
2023-02-19T21:03:39.042Z,16.80
2023-02-19T21:06:06.217Z,16.80
2023-02-19T21:08:33.036Z,16.80
2023-02-19T21:10:59.879Z,16.80
2023-02-19T21:13:27.976Z,16.90
2023-02-19T21:15:56.163Z,16.90
2023-02-19T21:18:22.997Z,16.90
2023-02-19T21:20:49.839Z,16.90
2023-02-19T21:23:16.692Z,16.90
2023-02-19T21:25:43.551Z,16.90
2023-02-19T21:28:10.919Z,16.90
2023-02-19T21:30:37.840Z,16.90
2023-02-19T21:33:04.878Z,16.90
2023-02-19T21:35:32.094Z,16.90
2023-02-19T21:37:59.022Z,16.90
2023-02-19T21:40:25.886Z,16.90
2023-02-19T21:42:52.830Z,16.90
2023-02-19T21:45:19.728Z,17.00
2023-02-19T21:47:46.631Z,17.00
2023-02-19T21:50:13.560Z,17.00
2023-02-19T21:52:40.434Z,17.00
2023-02-19T21:55:07.417Z,17.00
2023-02-19T21:57:34.382Z,17.00
2023-02-19T22:00:01.275Z,17.00
2023-02-19T22:02:28.115Z,17.00
2023-02-19T22:04:55.532Z,17.00
2023-02-19T22:07:22.648Z,17.00
2023-02-19T22:09:51.214Z,17.00
2023-02-19T22:12:20.026Z,17.00
2023-02-19T22:14:46.958Z,17.10
2023-02-19T22:17:13.950Z,17.10
2023-02-19T22:19:40.894Z,17.10
2023-02-19T22:22:07.729Z,17.10
2023-02-19T22:24:34.596Z,17.10
2023-02-19T22:27:01.448Z,17.00
2023-02-19T22:29:28.371Z,17.10
2023-02-19T22:31:55.589Z,17.00
2023-02-19T22:34:22.568Z,17.00
2023-02-19T22:36:49.723Z,17.00
2023-02-19T22:39:25.666Z,17.10
2023-02-19T22:41:53.078Z,17.00
2023-02-19T22:44:19.970Z,17.00
2023-02-19T22:46:52.530Z,17.10
2023-02-19T22:49:20.438Z,17.10
2023-02-19T22:51:58.601Z,17.10
2023-02-19T22:54:27.108Z,17.10
2023-02-19T22:56:55.202Z,17.10
2023-02-19T22:59:22.848Z,17.10
2023-02-19T23:01:50.646Z,17.10
2023-02-19T23:04:17.709Z,17.10
2023-02-19T23:06:45.816Z,17.10
2023-02-19T23:09:17.026Z,17.10
2023-02-19T23:11:44.266Z,17.10
2023-02-19T23:14:11.694Z,17.10
2023-02-19T23:16:38.704Z,17.10
2023-02-19T23:19:08.137Z,17.10
2023-02-19T23:21:35.037Z,17.10
2023-02-19T23:24:01.957Z,17.10
2023-02-19T23:26:28.876Z,17.10
2023-02-19T23:28:56.125Z,17.10
2023-02-19T23:31:23.740Z,17.10
2023-02-19T23:33:50.606Z,17.10
2023-02-19T23:36:17.487Z,17.10
2023-02-19T23:38:45.868Z,17.10
2023-02-19T23:41:15.080Z,17.10
2023-02-19T23:43:42.185Z,17.00
2023-02-19T23:46:09.393Z,17.00
2023-02-19T23:48:36.351Z,17.00
2023-02-19T23:51:03.330Z,17.00
2023-02-19T23:53:30.189Z,17.00
2023-02-19T23:55:57.311Z,17.00
2023-02-19T23:58:24.220Z,17.00
